sensor_id;sensor_type;location;lat;lon;timestamp;pressure;altitude;pressure_sealevel;temperature;humidity
21203;BME280;10759;51.982;9.232;2023-02-13T00:00:36;102585.84;;;7.10;100.00
21203;BME280;10759;51.982;9.232;2023-02-13T00:03:04;102587.59;;;7.08;100.00
21203;BME280;10759;51.982;9.232;2023-02-13T00:05:32;102588.53;;;7.12;100.00
21203;BME280;10759;51.982;9.232;2023-02-13T00:08:00;102588.44;;;7.04;100.00
21203;BME280;10759;51.982;9.232;2023-02-13T00:10:28;102498.03;;;6.50;100.00
21203;BME280;10759;51.982;9.232;2023-02-13T00:12:56;102592.88;;;7.05;100.00
21203;BME280;10759;51.982;9.232;2023-02-13T00:15:25;102587.53;;;7.02;100.00
21203;BME280;10759;51.982;9.232;2023-02-13T00:17:53;102589.38;;;7.06;100.00
21203;BME280;10759;51.982;9.232;2023-02-13T00:20:21;102591.13;;;7.06;100.00
21203;BME280;10759;51.982;9.232;2023-02-13T00:22:49;102587.53;;;7.02;100.00
21203;BME280;10759;51.982;9.232;2023-02-13T00:25:17;102569.59;;;6.89;100.00
21203;BME280;10759;51.982;9.232;2023-02-13T00:27:45;102588.38;;;6.97;100.00
21203;BME280;10759;51.982;9.232;2023-02-13T00:30:14;102587.50;;;6.99;100.00
21203;BME280;10759;51.982;9.232;2023-02-13T00:32:43;102592.88;;;7.02;100.00
21203;BME280;10759;51.982;9.232;2023-02-13T00:35:11;102595.53;;;7.02;100.00
21203;BME280;10759;51.982;9.232;2023-02-13T00:37:39;102534.63;;;6.64;100.00
21203;BME280;10759;51.982;9.232;2023-02-13T00:40:08;102555.28;;;6.81;100.00
21203;BME280;10759;51.982;9.232;2023-02-13T00:42:36;102589.28;;;7.00;100.00
21203;BME280;10759;51.982;9.232;2023-02-13T00:45:05;102535.63;;;6.71;100.00
21203;BME280;10759;51.982;9.232;2023-02-13T00:47:33;102591.94;;;7.00;100.00
21203;BME280;10759;51.982;9.232;2023-02-13T00:50:02;102583.06;;;7.00;100.00
21203;BME280;10759;51.982;9.232;2023-02-13T00:52:30;102586.59;;;6.99;100.00
21203;BME280;10759;51.982;9.232;2023-02-13T00:54:58;102582.88;;;6.84;100.00
21203;BME280;10759;51.982;9.232;2023-02-13T00:57:26;102535.63;;;6.70;100.00
21203;BME280;10759;51.982;9.232;2023-02-13T00:59:54;102570.56;;;6.96;100.00
21203;BME280;10759;51.982;9.232;2023-02-13T01:02:22;102575.94;;;6.97;100.00
21203;BME280;10759;51.982;9.232;2023-02-13T01:04:50;102547.22;;;6.76;100.00
21203;BME280;10759;51.982;9.232;2023-02-13T01:07:20;102476.59;;;6.39;100.00
21203;BME280;10759;51.982;9.232;2023-02-13T01:09:48;102562.44;;;6.86;100.00
21203;BME280;10759;51.982;9.232;2023-02-13T01:12:15;102580.34;;;6.95;100.00
21203;BME280;10759;51.982;9.232;2023-02-13T01:14:44;102571.44;;;6.96;100.00
21203;BME280;10759;51.982;9.232;2023-02-13T01:17:11;102546.44;;;6.82;100.00
21203;BME280;10759;51.982;9.232;2023-02-13T01:19:40;102567.06;;;7.00;100.00
21203;BME280;10759;51.982;9.232;2023-02-13T01:22:08;102577.88;;;7.14;100.00
21203;BME280;10759;51.982;9.232;2023-02-13T01:24:37;102584.97;;;7.12;100.00
21203;BME280;10759;51.982;9.232;2023-02-13T01:27:05;102576.94;;;7.10;100.00
21203;BME280;10759;51.982;9.232;2023-02-13T01:29:34;102503.56;;;6.63;100.00
21203;BME280;10759;51.982;9.232;2023-02-13T01:32:03;102582.22;;;7.05;100.00
21203;BME280;10759;51.982;9.232;2023-02-13T01:34:32;102542.91;;;6.84;100.00
21203;BME280;10759;51.982;9.232;2023-02-13T01:37:00;102570.63;;;7.00;100.00
21203;BME280;10759;51.982;9.232;2023-02-13T01:39:28;102575.97;;;7.02;100.00
21203;BME280;10759;51.982;9.232;2023-02-13T01:41:58;102568.84;;;7.01;100.00
21203;BME280;10759;51.982;9.232;2023-02-13T01:44:50;102576.88;;;7.02;100.00
21203;BME280;10759;51.982;9.232;2023-02-13T01:47:24;102568.91;;;7.05;100.00
21203;BME280;10759;51.982;9.232;2023-02-13T01:50:04;102530.41;;;6.80;100.00
21203;BME280;10759;51.982;9.232;2023-02-13T01:52:35;102567.03;;;6.98;100.00
21203;BME280;10759;51.982;9.232;2023-02-13T01:55:05;102539.38;;;6.87;100.00
21203;BME280;10759;51.982;9.232;2023-02-13T01:57:36;102559.88;;;6.93;100.00
21203;BME280;10759;51.982;9.232;2023-02-13T02:00:08;102558.16;;;6.98;100.00
21203;BME280;10759;51.982;9.232;2023-02-13T02:02:52;102556.34;;;6.95;100.00
21203;BME280;10759;51.982;9.232;2023-02-13T02:05:26;102555.44;;;6.93;100.00
21203;BME280;10759;51.982;9.232;2023-02-13T02:07:56;102551.91;;;6.96;100.00
21203;BME280;10759;51.982;9.232;2023-02-13T02:10:25;102519.63;;;6.71;100.00
21203;BME280;10759;51.982;9.232;2023-02-13T02:12:59;102526.84;;;6.80;100.00
21203;BME280;10759;51.982;9.232;2023-02-13T02:15:30;102498.19;;;6.60;100.00
21203;BME280;10759;51.982;9.232;2023-02-13T02:17:57;102548.31;;;6.92;100.00
21203;BME280;10759;51.982;9.232;2023-02-13T02:20:49;102539.38;;;6.87;100.00
21203;BME280;10759;51.982;9.232;2023-02-13T02:23:39;102532.19;;;6.80;100.00
21203;BME280;10759;51.982;9.232;2023-02-13T02:29:37;102523.25;;;6.78;100.00
21203;BME280;10759;51.982;9.232;2023-02-13T02:32:33;102534.94;;;6.87;100.00
21203;BME280;10759;51.982;9.232;2023-02-13T02:35:15;102539.38;;;6.87;100.00
21203;BME280;10759;51.982;9.232;2023-02-13T02:37:59;102534.91;;;6.84;100.00
21203;BME280;10759;51.982;9.232;2023-02-13T02:40:36;102499.13;;;6.65;100.00
21203;BME280;10759;51.982;9.232;2023-02-13T02:43:20;102528.66;;;6.82;100.00
21203;BME280;10759;51.982;9.232;2023-02-13T02:45:55;102530.47;;;6.85;100.00
21203;BME280;10759;51.982;9.232;2023-02-13T02:48:32;102531.38;;;6.87;100.00
21203;BME280;10759;51.982;9.232;2023-02-13T02:51:23;102520.69;;;6.85;100.00
21203;BME280;10759;51.982;9.232;2023-02-13T02:54:01;102466.13;;;6.54;100.00
21203;BME280;10759;51.982;9.232;2023-02-13T02:56:53;102512.66;;;6.84;100.00
21203;BME280;10759;51.982;9.232;2023-02-13T02:59:27;102516.28;;;6.89;100.00
21203;BME280;10759;51.982;9.232;2023-02-13T03:02:14;102521.53;;;6.80;100.00
21203;BME280;10759;51.982;9.232;2023-02-13T03:05:01;102499.97;;;6.61;100.00
21203;BME280;10759;51.982;9.232;2023-02-13T03:07:48;102511.63;;;6.70;100.00
21203;BME280;10759;51.982;9.232;2023-02-13T03:10:24;102511.72;;;6.77;100.00
21203;BME280;10759;51.982;9.232;2023-02-13T03:13:14;102443.75;;;6.38;100.00
21203;BME280;10759;51.982;9.232;2023-02-13T03:15:51;102515.28;;;6.78;100.00
21203;BME280;10759;51.982;9.232;2023-02-13T03:18:41;102487.59;;;6.66;100.00
21203;BME280;10759;51.982;9.232;2023-02-13T03:21:39;102498.31;;;6.71;100.00
21203;BME280;10759;51.982;9.232;2023-02-13T03:24:32;102513.47;;;6.77;100.00
21203;BME280;10759;51.982;9.232;2023-02-13T03:27:08;102500.13;;;6.72;100.00
21203;BME280;10759;51.982;9.232;2023-02-13T03:29:43;102516.13;;;6.77;100.00
21203;BME280;10759;51.982;9.232;2023-02-13T03:32:36;102512.56;;;6.76;100.00
21203;BME280;10759;51.982;9.232;2023-02-13T03:35:20;102517.03;;;6.79;100.00
21203;BME280;10759;51.982;9.232;2023-02-13T03:38:13;102517.13;;;6.85;100.00
21203;BME280;10759;51.982;9.232;2023-02-13T03:40:47;102514.44;;;6.82;100.00
21203;BME280;10759;51.982;9.232;2023-02-13T03:43:39;102513.44;;;6.74;100.00
21203;BME280;10759;51.982;9.232;2023-02-13T03:46:12;102502.78;;;6.72;100.00
21203;BME280;10759;51.982;9.232;2023-02-13T03:48:41;102516.22;;;6.83;100.00
21203;BME280;10759;51.982;9.232;2023-02-13T03:51:33;102512.72;;;6.87;100.00
21203;BME280;10759;51.982;9.232;2023-02-13T03:54:10;102516.09;;;6.74;100.00
21203;BME280;10759;51.982;9.232;2023-02-13T03:56:40;102516.06;;;6.71;100.00
21203;BME280;10759;51.982;9.232;2023-02-13T03:59:29;102485.69;;;6.56;100.00
21203;BME280;10759;51.982;9.232;2023-02-13T04:02:05;102499.94;;;6.58;100.00
21203;BME280;10759;51.982;9.232;2023-02-13T04:04:41;102525.88;;;6.73;100.00
21203;BME280;10759;51.982;9.232;2023-02-13T04:07:12;102519.66;;;6.73;100.00
21203;BME280;10759;51.982;9.232;2023-02-13T04:09:58;102497.31;;;6.61;100.00
21203;BME280;10759;51.982;9.232;2023-02-13T04:12:34;102508.00;;;6.63;100.00
21203;BME280;10759;51.982;9.232;2023-02-13T04:15:08;102521.53;;;6.80;100.00
21203;BME280;10759;51.982;9.232;2023-02-13T04:17:40;102506.25;;;6.65;100.00
21203;BME280;10759;51.982;9.232;2023-02-13T04:20:10;102517.84;;;6.72;100.00
21203;BME280;10759;51.982;9.232;2023-02-13T04:22:42;102477.63;;;6.49;100.00
21203;BME280;10759;51.982;9.232;2023-02-13T04:25:13;102516.06;;;6.71;100.00
21203;BME280;10759;51.982;9.232;2023-02-13T04:27:42;102480.19;;;6.41;100.00
21203;BME280;10759;51.982;9.232;2023-02-13T04:30:11;102523.19;;;6.70;100.00
21203;BME280;10759;51.982;9.232;2023-02-13T04:32:39;102521.41;;;6.71;100.00
21203;BME280;10759;51.982;9.232;2023-02-13T04:35:07;102525.78;;;6.65;100.00
21203;BME280;10759;51.982;9.232;2023-02-13T04:37:37;102510.56;;;6.57;100.00
21203;BME280;10759;51.982;9.232;2023-02-13T04:40:06;102515.94;;;6.58;100.00
21203;BME280;10759;51.982;9.232;2023-02-13T04:42:35;102521.25;;;6.58;100.00
21203;BME280;10759;51.982;9.232;2023-02-13T04:45:03;102519.56;;;6.65;100.00
21203;BME280;10759;51.982;9.232;2023-02-13T04:47:31;102520.44;;;6.64;100.00
21203;BME280;10759;51.982;9.232;2023-02-13T04:49:59;102516.91;;;6.66;100.00
21203;BME280;10759;51.982;9.232;2023-02-13T04:52:27;102516.91;;;6.66;100.00
21203;BME280;10759;51.982;9.232;2023-02-13T04:54:55;102515.94;;;6.58;100.00
21203;BME280;10759;51.982;9.232;2023-02-13T04:57:23;102508.84;;;6.62;100.00
21203;BME280;10759;51.982;9.232;2023-02-13T04:59:53;102514.19;;;6.60;100.00
21203;BME280;10759;51.982;9.232;2023-02-13T05:02:20;102515.03;;;6.59;100.00
21203;BME280;10759;51.982;9.232;2023-02-13T05:04:48;102492.72;;;6.48;100.00
21203;BME280;10759;51.982;9.232;2023-02-13T05:07:16;102510.56;;;6.57;100.00
21203;BME280;10759;51.982;9.232;2023-02-13T05:09:44;102507.91;;;6.57;100.00
21203;BME280;10759;51.982;9.232;2023-02-13T05:12:13;102512.38;;;6.59;100.00
21203;BME280;10759;51.982;9.232;2023-02-13T05:14:41;102449.69;;;6.17;100.00
21203;BME280;10759;51.982;9.232;2023-02-13T05:17:10;102492.75;;;6.51;100.00
21203;BME280;10759;51.982;9.232;2023-02-13T05:19:38;102496.31;;;6.53;100.00
21203;BME280;10759;51.982;9.232;2023-02-13T05:22:07;102522.19;;;6.63;100.00
21203;BME280;10759;51.982;9.232;2023-02-13T05:24:53;102509.69;;;6.55;100.00
21203;BME280;10759;51.982;9.232;2023-02-13T05:27:21;102489.16;;;6.49;100.00
21203;BME280;10759;51.982;9.232;2023-02-13T05:29:48;102498.19;;;6.62;100.00
21203;BME280;10759;51.982;9.232;2023-02-13T05:32:18;102507.09;;;6.64;100.00
21203;BME280;10759;51.982;9.232;2023-02-13T05:34:46;102448.91;;;6.23;100.00
21203;BME280;10759;51.982;9.232;2023-02-13T05:37:14;102415.66;;;5.93;100.00
21203;BME280;10759;51.982;9.232;2023-02-13T05:39:41;102487.13;;;6.30;100.00
21203;BME280;10759;51.982;9.232;2023-02-13T05:42:09;102506.91;;;6.49;100.00
21203;BME280;10759;51.982;9.232;2023-02-13T05:44:37;102522.88;;;6.47;100.00
21203;BME280;10759;51.982;9.232;2023-02-13T05:47:05;102517.50;;;6.42;100.00
21203;BME280;10759;51.982;9.232;2023-02-13T05:49:34;102515.78;;;6.46;100.00
21203;BME280;10759;51.982;9.232;2023-02-13T05:52:02;102509.47;;;6.38;100.00
21203;BME280;10759;51.982;9.232;2023-02-13T05:54:30;102525.72;;;6.61;100.00
21203;BME280;10759;51.982;9.232;2023-02-13T05:56:58;102522.88;;;6.47;100.00
21203;BME280;10759;51.982;9.232;2023-02-13T05:59:26;102443.13;;;5.92;100.00
21203;BME280;10759;51.982;9.232;2023-02-13T06:01:54;102535.31;;;6.45;100.00
21203;BME280;10759;51.982;9.232;2023-02-13T06:04:22;102438.66;;;5.90;100.00
21203;BME280;10759;51.982;9.232;2023-02-13T06:06:51;102538.88;;;6.49;100.00
21203;BME280;10759;51.982;9.232;2023-02-13T06:09:19;102533.59;;;6.50;100.00
21203;BME280;10759;51.982;9.232;2023-02-13T06:11:47;102542.38;;;6.43;100.00
21203;BME280;10759;51.982;9.232;2023-02-13T06:14:15;102499.47;;;6.21;100.00
21203;BME280;10759;51.982;9.232;2023-02-13T06:16:43;102541.66;;;6.56;100.00
21203;BME280;10759;51.982;9.232;2023-02-13T06:19:11;102490.53;;;6.16;100.00
21203;BME280;10759;51.982;9.232;2023-02-13T06:21:39;102528.97;;;6.35;100.00
21203;BME280;10759;51.982;9.232;2023-02-13T06:24:08;102552.06;;;6.39;100.00
21203;BME280;10759;51.982;9.232;2023-02-13T06:26:36;102545.00;;;6.40;100.00
21203;BME280;10759;51.982;9.232;2023-02-13T06:29:04;102535.28;;;6.43;100.00
21203;BME280;10759;51.982;9.232;2023-02-13T06:31:32;102551.34;;;6.51;100.00
21203;BME280;10759;51.982;9.232;2023-02-13T06:34:00;102547.72;;;6.46;100.00
21203;BME280;10759;51.982;9.232;2023-02-13T06:36:29;102549.44;;;6.41;100.00
21203;BME280;10759;51.982;9.232;2023-02-13T06:38:57;102554.88;;;6.49;100.00
21203;BME280;10759;51.982;9.232;2023-02-13T06:41:26;102518.88;;;6.14;100.00
21203;BME280;10759;51.982;9.232;2023-02-13T06:43:54;102558.22;;;6.34;100.00
21203;BME280;10759;51.982;9.232;2023-02-13T06:46:22;102566.19;;;6.32;100.00
21203;BME280;10759;51.982;9.232;2023-02-13T06:48:50;102561.91;;;6.43;100.00
21203;BME280;10759;51.982;9.232;2023-02-13T06:51:18;102566.34;;;6.44;100.00
21203;BME280;10759;51.982;9.232;2023-02-13T06:53:46;102543.97;;;6.30;100.00
21203;BME280;10759;51.982;9.232;2023-02-13T06:56:14;102570.72;;;6.39;100.00
21203;BME280;10759;51.982;9.232;2023-02-13T06:58:43;102565.38;;;6.38;100.00
21203;BME280;10759;51.982;9.232;2023-02-13T07:01:11;102569.63;;;6.25;100.00
21203;BME280;10759;51.982;9.232;2023-02-13T07:03:40;102575.00;;;6.30;100.00
21203;BME280;10759;51.982;9.232;2023-02-13T07:06:07;102580.31;;;6.27;100.00
21203;BME280;10759;51.982;9.232;2023-02-13T07:08:35;102585.69;;;6.31;100.00
21203;BME280;10759;51.982;9.232;2023-02-13T07:11:03;102581.94;;;6.17;100.00
21203;BME280;10759;51.982;9.232;2023-02-13T07:13:31;102586.34;;;6.15;100.00
21203;BME280;10759;51.982;9.232;2023-02-13T07:16:01;102569.28;;;6.02;100.00
21203;BME280;10759;51.982;9.232;2023-02-13T07:18:29;102580.75;;;5.98;100.00
21203;BME280;10759;51.982;9.232;2023-02-13T07:20:57;102586.22;;;6.07;100.00
21203;BME280;10759;51.982;9.232;2023-02-13T07:23:25;102565.63;;;5.94;100.00
21203;BME280;10759;51.982;9.232;2023-02-13T07:25:53;102555.03;;;5.98;100.00
21203;BME280;10759;51.982;9.232;2023-02-13T07:28:21;102584.44;;;6.08;100.00
21203;BME280;10759;51.982;9.232;2023-02-13T07:30:49;102579.69;;;5.88;100.00
21203;BME280;10759;51.982;9.232;2023-02-13T07:33:23;102557.28;;;5.74;100.00
21203;BME280;10759;51.982;9.232;2023-02-13T07:35:51;102588.69;;;5.95;100.00
21203;BME280;10759;51.982;9.232;2023-02-13T07:38:19;102557.41;;;5.81;100.00
21203;BME280;10759;51.982;9.232;2023-02-13T07:40:47;102579.75;;;5.93;100.00
21203;BME280;10759;51.982;9.232;2023-02-13T07:43:15;102582.31;;;5.87;100.00
21203;BME280;10759;51.982;9.232;2023-02-13T07:45:43;102560.91;;;5.79;100.00
21203;BME280;10759;51.982;9.232;2023-02-13T07:48:12;102570.78;;;5.88;100.00
21203;BME280;10759;51.982;9.232;2023-02-13T07:50:41;102576.47;;;6.06;100.00
21203;BME280;10759;51.982;9.232;2023-02-13T07:53:09;102583.63;;;6.12;100.00
21203;BME280;10759;51.982;9.232;2023-02-13T07:55:39;102583.56;;;6.06;100.00
21203;BME280;10759;51.982;9.232;2023-02-13T07:58:08;102580.09;;;6.11;100.00
21203;BME280;10759;51.982;9.232;2023-02-13T08:00:36;102560.50;;;6.08;100.00
21203;BME280;10759;51.982;9.232;2023-02-13T08:03:03;102579.19;;;6.12;100.00
21203;BME280;10759;51.982;9.232;2023-02-13T08:05:32;102556.63;;;5.90;100.00
21203;BME280;10759;51.982;9.232;2023-02-13T08:08:02;102536.13;;;5.83;100.00
21203;BME280;10759;51.982;9.232;2023-02-13T08:10:30;102597.91;;;6.17;100.00
21203;BME280;10759;51.982;9.232;2023-02-13T08:13:15;102586.38;;;6.16;100.00
21203;BME280;10759;51.982;9.232;2023-02-13T08:15:44;102572.84;;;6.02;100.00
21203;BME280;10759;51.982;9.232;2023-02-13T08:18:12;102579.28;;;6.15;100.00
21203;BME280;10759;51.982;9.232;2023-02-13T08:20:40;102523.78;;;5.87;100.00
21203;BME280;10759;51.982;9.232;2023-02-13T08:23:10;102555.94;;;6.00;100.00
21203;BME280;10759;51.982;9.232;2023-02-13T08:25:38;102608.94;;;6.40;100.00
21203;BME280;10759;51.982;9.232;2023-02-13T08:28:06;102600.00;;;6.38;100.00
21203;BME280;10759;51.982;9.232;2023-02-13T08:30:34;102602.56;;;6.32;100.00
21203;BME280;10759;51.982;9.232;2023-02-13T08:33:03;102602.72;;;6.41;100.00
21203;BME280;10759;51.982;9.232;2023-02-13T08:35:30;102596.31;;;6.28;100.00
21203;BME280;10759;51.982;9.232;2023-02-13T08:38:01;102591.06;;;6.33;100.00
21203;BME280;10759;51.982;9.232;2023-02-13T08:40:31;102584.66;;;6.21;100.00
21203;BME280;10759;51.982;9.232;2023-02-13T08:42:59;102599.06;;;6.33;100.00
21203;BME280;10759;51.982;9.232;2023-02-13T08:45:28;102607.16;;;6.42;100.00
21203;BME280;10759;51.982;9.232;2023-02-13T08:47:57;102512.47;;;5.98;100.00
21203;BME280;10759;51.982;9.232;2023-02-13T08:50:27;102608.97;;;6.43;100.00
21203;BME280;10759;51.982;9.232;2023-02-13T08:52:57;102602.69;;;6.38;100.00
21203;BME280;10759;51.982;9.232;2023-02-13T08:55:26;102601.94;;;6.50;100.00
21203;BME280;10759;51.982;9.232;2023-02-13T08:57:58;102603.63;;;6.43;100.00
21203;BME280;10759;51.982;9.232;2023-02-13T09:00:26;102541.00;;;6.09;100.00
21203;BME280;10759;51.982;9.232;2023-02-13T09:02:54;102595.72;;;6.49;100.00
21203;BME280;10759;51.982;9.232;2023-02-13T09:05:22;102588.66;;;6.51;100.00
21203;BME280;10759;51.982;9.232;2023-02-13T09:07:50;102597.53;;;6.50;100.00
21203;BME280;10759;51.982;9.232;2023-02-13T09:10:18;102608.34;;;6.62;100.00
21203;BME280;10759;51.982;9.232;2023-02-13T09:12:51;102585.19;;;6.58;100.00
21203;BME280;10759;51.982;9.232;2023-02-13T09:15:20;102566.19;;;6.32;100.00
21203;BME280;10759;51.982;9.232;2023-02-13T09:17:48;102586.94;;;6.56;100.00
21203;BME280;10759;51.982;9.232;2023-02-13T09:20:16;102602.06;;;6.59;100.00
21203;BME280;10759;51.982;9.232;2023-02-13T09:22:44;102594.88;;;6.50;100.00
21203;BME280;10759;51.982;9.232;2023-02-13T09:25:12;102599.50;;;6.66;100.00
21203;BME280;10759;51.982;9.232;2023-02-13T09:27:40;102603.81;;;6.55;100.00
21203;BME280;10759;51.982;9.232;2023-02-13T09:30:09;102606.56;;;6.64;100.00
21203;BME280;10759;51.982;9.232;2023-02-13T09:32:40;102560.09;;;6.41;100.00
21203;BME280;10759;51.982;9.232;2023-02-13T09:35:08;102600.44;;;6.69;100.00
21203;BME280;10759;51.982;9.232;2023-02-13T09:37:36;102606.75;;;6.77;100.00
21203;BME280;10759;51.982;9.232;2023-02-13T09:40:05;102576.41;;;6.65;100.00
21203;BME280;10759;51.982;9.232;2023-02-13T09:42:34;102607.66;;;6.77;100.00
21203;BME280;10759;51.982;9.232;2023-02-13T09:45:05;102614.63;;;6.68;100.00
21203;BME280;10759;51.982;9.232;2023-02-13T09:47:36;102611.22;;;6.78;100.00
21203;BME280;10759;51.982;9.232;2023-02-13T09:50:12;102609.53;;;6.84;100.00
21203;BME280;10759;51.982;9.232;2023-02-13T09:52:43;102622.69;;;6.74;100.00
21203;BME280;10759;51.982;9.232;2023-02-13T09:55:15;102601.22;;;6.61;100.00
21203;BME280;10759;51.982;9.232;2023-02-13T09:57:47;102624.69;;;6.87;100.00
21203;BME280;10759;51.982;9.232;2023-02-13T10:00:20;102624.56;;;6.81;100.00
21203;BME280;10759;51.982;9.232;2023-02-13T10:03:12;102624.59;;;6.82;100.00
21203;BME280;10759;51.982;9.232;2023-02-13T10:05:46;102622.84;;;6.83;100.00
21203;BME280;10759;51.982;9.232;2023-02-13T10:08:33;102558.53;;;6.55;100.00
21203;BME280;10759;51.982;9.232;2023-02-13T10:11:14;102613.84;;;6.76;100.00
21203;BME280;10759;51.982;9.232;2023-02-13T10:13:57;102613.69;;;6.62;100.00
21203;BME280;10759;51.982;9.232;2023-02-13T10:16:29;102615.56;;;6.70;100.00
21203;BME280;10759;51.982;9.232;2023-02-13T10:19:03;102613.88;;;6.78;100.00
21203;BME280;10759;51.982;9.232;2023-02-13T10:21:40;102614.16;;;6.99;100.00
21203;BME280;10759;51.982;9.232;2023-02-13T10:24:19;102597.31;;;7.03;100.00
21203;BME280;10759;51.982;9.232;2023-02-13T10:26:53;102613.41;;;7.13;100.00
21203;BME280;10759;51.982;9.232;2023-02-13T10:29:24;102616.69;;;6.87;100.00
21203;BME280;10759;51.982;9.232;2023-02-13T10:32:17;102617.25;;;6.64;100.00
21203;BME280;10759;51.982;9.232;2023-02-13T10:34:48;102540.56;;;6.42;100.00
21203;BME280;10759;51.982;9.232;2023-02-13T10:37:20;102629.34;;;7.05;100.00
21203;BME280;10759;51.982;9.232;2023-02-13T10:39:50;102623.09;;;7.06;100.00
21203;BME280;10759;51.982;9.232;2023-02-13T10:42:21;102620.34;;;6.98;100.00
21203;BME280;10759;51.982;9.232;2023-02-13T10:45:00;102624.09;;;7.13;100.00
21203;BME280;10759;51.982;9.232;2023-02-13T10:47:43;102625.84;;;7.10;100.00
21203;BME280;10759;51.982;9.232;2023-02-13T10:50:23;102622.38;;;7.16;100.00
21203;BME280;10759;51.982;9.232;2023-02-13T10:53:07;102626.06;;;7.29;100.00
21203;BME280;10759;51.982;9.232;2023-02-13T10:56:00;102618.84;;;7.19;100.00
21203;BME280;10759;51.982;9.232;2023-02-13T10:58:43;102600.84;;;6.99;100.00
21203;BME280;10759;51.982;9.232;2023-02-13T11:01:18;102622.28;;;7.10;100.00
21203;BME280;10759;51.982;9.232;2023-02-13T11:03:49;102607.84;;;6.93;100.00
21203;BME280;10759;51.982;9.232;2023-02-13T11:06:27;102608.16;;;7.17;100.00
21203;BME280;10759;51.982;9.232;2023-02-13T11:08:57;102606.59;;;7.36;100.00
21203;BME280;10759;51.982;9.232;2023-02-13T11:11:30;102603.94;;;7.41;100.00
21203;BME280;10759;51.982;9.232;2023-02-13T11:17:40;102603.13;;;7.48;100.00
21203;BME280;10759;51.982;9.232;2023-02-13T11:20:22;102592.34;;;7.34;100.00
21203;BME280;10759;51.982;9.232;2023-02-13T11:22:52;102601.38;;;7.48;100.00
21203;BME280;10759;51.982;9.232;2023-02-13T11:25:25;102553.16;;;7.30;100.00
21203;BME280;10759;51.982;9.232;2023-02-13T11:28:06;102582.69;;;7.50;100.00
21203;BME280;10759;51.982;9.232;2023-02-13T11:30:36;102595.72;;;7.21;100.00
21203;BME280;10759;51.982;9.232;2023-02-13T11:33:05;102596.69;;;7.27;100.00
21203;BME280;10759;51.982;9.232;2023-02-13T11:35:34;102586.09;;;7.35;100.00
21203;BME280;10759;51.982;9.232;2023-02-13T11:38:20;102582.59;;;7.39;100.00
21203;BME280;10759;51.982;9.232;2023-02-13T11:40:52;102584.31;;;7.32;100.00
21203;BME280;10759;51.982;9.232;2023-02-13T11:43:34;102587.16;;;7.51;100.00
21203;BME280;10759;51.982;9.232;2023-02-13T11:46:04;102583.53;;;7.41;100.00
21203;BME280;10759;51.982;9.232;2023-02-13T11:48:34;102586.44;;;7.69;100.00
21203;BME280;10759;51.982;9.232;2023-02-13T11:51:03;102578.53;;;7.81;100.00
21203;BME280;10759;51.982;9.232;2023-02-13T11:53:35;102565.03;;;7.63;100.00
21203;BME280;10759;51.982;9.232;2023-02-13T11:56:10;102574.66;;;7.47;100.00
21203;BME280;10759;51.982;9.232;2023-02-13T11:58:39;102568.50;;;7.52;100.00
21203;BME280;10759;51.982;9.232;2023-02-13T12:01:26;102555.97;;;7.45;100.00
21203;BME280;10759;51.982;9.232;2023-02-13T12:04:04;102554.28;;;7.55;100.00
21203;BME280;10759;51.982;9.232;2023-02-13T12:06:33;102556.03;;;7.48;100.00
21203;BME280;10759;51.982;9.232;2023-02-13T12:09:11;102478.03;;;6.85;100.00
21203;BME280;10759;51.982;9.232;2023-02-13T12:11:44;102505.97;;;7.23;100.00
21203;BME280;10759;51.982;9.232;2023-02-13T12:14:19;102526.72;;;7.56;100.00
21203;BME280;10759;51.982;9.232;2023-02-13T12:16:50;102555.41;;;7.80;100.00
21203;BME280;10759;51.982;9.232;2023-02-13T12:19:23;102556.38;;;7.93;100.00
21203;BME280;10759;51.982;9.232;2023-02-13T12:22:06;102543.09;;;8.04;100.00
21203;BME280;10759;51.982;9.232;2023-02-13T12:24:51;102542.78;;;7.65;100.00
21203;BME280;10759;51.982;9.232;2023-02-13T12:27:28;102535.84;;;7.83;100.00
21203;BME280;10759;51.982;9.232;2023-02-13T12:30:24;102536.84;;;8.02;100.00
21203;BME280;10759;51.982;9.232;2023-02-13T12:33:07;102530.66;;;8.03;100.00
21203;BME280;10759;51.982;9.232;2023-02-13T12:35:47;102486.78;;;7.67;100.00
21203;BME280;10759;51.982;9.232;2023-02-13T12:38:32;102520.53;;;7.62;100.00
21203;BME280;10759;51.982;9.232;2023-02-13T12:41:14;102527.91;;;7.93;100.00
21203;BME280;10759;51.982;9.232;2023-02-13T12:44:09;102526.25;;;8.14;100.00
21203;BME280;10759;51.982;9.232;2023-02-13T12:46:51;102526.31;;;8.23;100.00
21203;BME280;10759;51.982;9.232;2023-02-13T12:49:38;102527.22;;;8.27;100.00
21203;BME280;10759;51.982;9.232;2023-02-13T12:52:30;102512.13;;;8.36;100.00
21203;BME280;10759;51.982;9.232;2023-02-13T12:55:12;102486.28;;;8.31;100.00
21203;BME280;10759;51.982;9.232;2023-02-13T12:57:57;102497.94;;;8.41;100.00
21203;BME280;10759;51.982;9.232;2023-02-13T13:00:39;102489.06;;;8.45;100.00
21203;BME280;10759;51.982;9.232;2023-02-13T13:03:23;102445.28;;;8.23;100.00
21203;BME280;10759;51.982;9.232;2023-02-13T13:06:12;102497.84;;;8.28;100.00
21203;BME280;10759;51.982;9.232;2023-02-13T13:09:10;102495.16;;;8.24;100.00
21203;BME280;10759;51.982;9.232;2023-02-13T13:11:55;102477.22;;;7.98;100.00
21203;BME280;10759;51.982;9.232;2023-02-13T13:14:32;102493.22;;;7.98;100.00
21203;BME280;10759;51.982;9.232;2023-02-13T13:17:12;102482.66;;;8.15;100.00
21203;BME280;10759;51.982;9.232;2023-02-13T13:19:48;102498.69;;;8.21;100.00
21203;BME280;10759;51.982;9.232;2023-02-13T13:22:23;102491.53;;;8.11;100.00
21203;BME280;10759;51.982;9.232;2023-02-13T13:24:59;102488.78;;;8.02;100.00
21203;BME280;10759;51.982;9.232;2023-02-13T13:27:33;102403.81;;;7.35;100.00